createdAt,value
2023-01-28T00:01:19.980Z,100507.20
2023-01-28T00:04:23.000Z,100504.05
2023-01-28T00:07:24.921Z,100506.59
2023-01-28T00:10:26.366Z,100509.84
2023-01-28T00:13:27.964Z,100503.89
2023-01-28T00:16:33.102Z,100503.45
2023-01-28T00:19:36.011Z,100502.15
2023-01-28T00:22:37.999Z,100503.76
2023-01-28T00:25:38.038Z,100500.39
2023-01-28T00:28:38.472Z,100499.22
2023-01-28T00:31:42.529Z,100507.17
2023-01-28T00:34:43.008Z,100503.55
2023-01-28T00:37:45.100Z,100506.61
2023-01-28T00:40:47.072Z,100504.41
2023-01-28T00:43:49.037Z,100503.41
2023-01-28T00:46:50.033Z,100496.13
2023-01-28T00:49:51.045Z,100487.50
2023-01-28T00:52:51.150Z,100490.52
2023-01-28T00:55:53.067Z,100489.08
2023-01-28T00:58:54.058Z,100494.61
2023-01-28T01:01:55.097Z,100497.25
2023-01-28T01:05:06.178Z,100484.98
2023-01-28T01:08:07.109Z,100491.55
2023-01-28T01:11:12.043Z,100495.89
2023-01-28T01:14:13.142Z,100493.34
2023-01-28T01:17:13.069Z,100488.04
2023-01-28T01:20:13.091Z,100484.23
2023-01-28T01:23:15.570Z,100485.05
2023-01-28T01:26:19.087Z,100486.41
2023-01-28T01:29:12.183Z,100485.65
2023-01-28T01:32:14.333Z,100485.89
2023-01-28T01:35:23.156Z,100476.81
2023-01-28T01:38:24.114Z,100477.91
2023-01-28T01:41:35.103Z,100479.94
2023-01-28T01:45:03.501Z,100478.87
2023-01-28T01:48:13.137Z,100479.39
2023-01-28T01:51:21.136Z,100484.16
2023-01-28T01:54:22.198Z,100475.91
2023-01-28T01:57:25.598Z,100479.35
2023-01-28T02:00:26.484Z,100474.20
2023-01-28T02:03:27.230Z,100469.69
2023-01-28T02:06:27.151Z,100468.39
2023-01-28T02:09:43.186Z,100468.17
2023-01-28T02:12:47.174Z,100464.36
2023-01-28T02:15:57.792Z,100467.79
2023-01-28T02:19:00.146Z,100464.20
2023-01-28T02:22:14.221Z,100463.54
2023-01-28T02:25:18.811Z,100474.10
2023-01-28T02:28:34.178Z,100471.79
2023-01-28T02:31:43.469Z,100466.61
2023-01-28T02:35:01.206Z,100464.61
2023-01-28T02:38:07.178Z,100461.73
2023-01-28T02:41:13.324Z,100460.48
2023-01-28T02:44:16.208Z,100456.55
2023-01-28T02:47:34.208Z,100463.40
2023-01-28T02:50:41.934Z,100462.99
2023-01-28T02:54:05.317Z,100464.22
2023-01-28T02:57:40.497Z,100459.45
2023-01-28T03:00:47.283Z,100460.80
2023-01-28T03:03:52.290Z,100462.40
2023-01-28T03:06:58.389Z,100460.27
2023-01-28T03:10:00.261Z,100456.34
2023-01-28T03:13:24.314Z,100454.02
2023-01-28T03:16:46.274Z,100452.20
2023-01-28T03:20:04.513Z,100452.77
2023-01-28T03:23:23.304Z,100447.00
2023-01-28T03:26:45.825Z,100447.80
2023-01-28T03:30:05.437Z,100447.77
2023-01-28T03:33:23.700Z,100447.63
2023-01-28T03:36:41.289Z,100446.71
2023-01-28T03:40:00.295Z,100444.65
2023-01-28T03:43:00.511Z,100442.97
2023-01-28T03:46:02.409Z,100445.11
2023-01-28T03:49:02.293Z,100446.43
2023-01-28T03:52:04.836Z,100451.67
2023-01-28T03:55:12.583Z,100452.93
2023-01-28T03:58:14.673Z,100446.91
2023-01-28T04:01:14.645Z,100439.59
2023-01-28T04:04:29.596Z,100443.63
2023-01-28T04:07:30.369Z,100450.89
2023-01-28T04:10:42.329Z,100457.46
2023-01-28T04:13:53.414Z,100458.84
2023-01-28T04:17:01.450Z,100459.38
2023-01-28T04:20:04.374Z,100463.20
2023-01-28T04:23:07.371Z,100468.55
2023-01-28T04:26:07.347Z,100466.94
2023-01-28T04:29:10.403Z,100470.98
2023-01-28T04:32:15.381Z,100473.54
2023-01-28T04:35:36.404Z,100476.52
2023-01-28T04:39:02.436Z,100470.77
2023-01-28T04:42:02.599Z,100471.40
2023-01-28T04:45:22.413Z,100469.73
2023-01-28T04:48:47.465Z,100473.16
2023-01-28T04:52:13.554Z,100479.19
2023-01-28T04:55:35.452Z,100481.99
2023-01-28T04:58:38.853Z,100482.20
2023-01-28T05:01:44.660Z,100487.49
2023-01-28T05:04:45.439Z,100491.08
2023-01-28T05:08:13.429Z,100494.98
2023-01-28T05:11:15.864Z,100498.44
2023-01-28T05:14:20.655Z,100497.26
2023-01-28T05:17:33.532Z,100499.45
2023-01-28T05:20:33.475Z,100501.54
2023-01-28T05:23:35.547Z,100492.51
2023-01-28T05:26:38.372Z,100481.65
2023-01-28T05:29:48.018Z,100480.85
2023-01-28T05:32:52.075Z,100482.66
2023-01-28T05:35:57.480Z,100486.11
2023-01-28T05:39:04.278Z,100481.59
2023-01-28T05:42:05.843Z,100483.63
2023-01-28T05:45:12.181Z,100484.98
2023-01-28T05:48:37.858Z,100480.23
2023-01-28T05:51:54.746Z,100482.89
2023-01-28T05:54:58.748Z,100480.77
2023-01-28T05:58:03.675Z,100482.13
2023-01-28T06:01:09.182Z,100479.06
2023-01-28T06:04:15.716Z,100477.32
2023-01-28T06:07:16.456Z,100480.48
2023-01-28T06:10:17.895Z,100475.58
2023-01-28T06:13:22.567Z,100480.52
2023-01-28T06:16:42.574Z,100478.53
2023-01-28T06:19:54.558Z,100481.11
2023-01-28T06:22:58.667Z,100482.48
2023-01-28T06:25:59.557Z,100478.61
2023-01-28T06:29:00.632Z,100480.98
2023-01-28T06:32:00.655Z,100485.23
2023-01-28T06:35:04.598Z,100491.52
2023-01-28T06:38:05.617Z,100494.39
2023-01-28T06:41:06.822Z,100497.68
2023-01-28T06:44:16.637Z,100504.99
2023-01-28T06:47:16.636Z,100506.35
2023-01-28T06:50:17.853Z,100505.33
2023-01-28T06:53:20.584Z,100502.85
2023-01-28T06:56:21.633Z,100502.14
2023-01-28T06:59:22.621Z,100500.09
2023-01-28T07:02:25.360Z,100500.08
2023-01-28T07:05:27.653Z,100506.86
2023-01-28T07:08:28.060Z,100509.59
2023-01-28T07:11:28.622Z,100518.21
2023-01-28T07:14:30.752Z,100516.19
2023-01-28T07:17:34.697Z,100518.13
2023-01-28T07:20:34.697Z,100516.19
2023-01-28T07:23:35.773Z,100513.58
2023-01-28T07:26:35.767Z,100517.69
2023-01-28T07:29:37.651Z,100508.02
2023-01-28T07:32:38.779Z,100505.89
2023-01-28T07:35:39.731Z,100503.63
2023-01-28T07:38:39.689Z,100506.25
2023-01-28T07:41:42.180Z,100506.23
2023-01-28T07:45:02.710Z,100498.64
2023-01-28T07:48:08.731Z,100498.77
2023-01-28T07:51:11.950Z,100498.80
2023-01-28T07:54:12.720Z,100502.56
2023-01-28T07:57:12.846Z,100513.98
2023-01-28T08:00:14.035Z,100526.98
2023-01-28T08:03:28.866Z,100531.55
2023-01-28T08:06:28.749Z,100535.22
2023-01-28T08:09:29.757Z,100534.83
2023-01-28T08:12:30.950Z,100533.98
2023-01-28T08:15:32.816Z,100539.76
2023-01-28T08:18:34.894Z,100540.15
2023-01-28T08:21:35.870Z,100540.95
2023-01-28T08:24:35.909Z,100535.38
2023-01-28T08:27:35.846Z,100526.55
2023-01-28T08:30:35.951Z,100522.59
2023-01-28T08:33:35.896Z,100521.66
2023-01-28T08:36:35.848Z,100522.88
2023-01-28T08:39:35.858Z,100527.59
2023-01-28T08:42:39.998Z,100527.00
2023-01-28T08:45:42.893Z,100525.05
2023-01-28T08:48:45.100Z,100524.36
2023-01-28T08:51:45.867Z,100523.08
2023-01-28T08:54:50.296Z,100517.44
2023-01-28T08:57:53.897Z,100509.52
2023-01-28T09:01:01.081Z,100504.02
2023-01-28T09:04:02.069Z,100497.11
2023-01-28T09:07:07.146Z,100489.60
2023-01-28T09:10:11.921Z,100485.81
2023-01-28T09:13:19.087Z,100476.67
2023-01-28T09:16:20.005Z,100478.58
2023-01-28T09:19:22.319Z,100477.09
2023-01-28T09:22:24.964Z,100478.94
2023-01-28T09:25:24.990Z,100479.05
2023-01-28T09:28:25.921Z,100482.96
2023-01-28T09:31:28.095Z,100478.23
2023-01-28T09:34:31.219Z,100474.43
2023-01-28T09:37:31.106Z,100476.25
2023-01-28T09:40:33.948Z,100475.60
2023-01-28T09:43:39.019Z,100469.84
2023-01-28T09:46:45.074Z,100461.77
2023-01-28T09:49:59.040Z,100457.02
2023-01-28T09:52:59.011Z,100452.92
2023-01-28T09:56:03.968Z,100443.00
2023-01-28T09:59:10.791Z,100432.84
2023-01-28T10:02:43.019Z,100423.27
2023-01-28T10:05:54.043Z,100424.64
2023-01-28T10:09:19.033Z,100425.62
2023-01-28T10:12:25.251Z,100426.65
2023-01-28T10:15:38.035Z,100422.73
2023-01-28T10:19:05.154Z,100416.86
2023-01-28T10:22:29.083Z,100423.58
2023-01-28T10:25:34.023Z,100417.64
2023-01-28T10:28:42.072Z,100413.23
2023-01-28T10:31:47.113Z,100406.76
2023-01-28T10:34:51.249Z,100405.11
2023-01-28T10:37:52.711Z,100406.78
2023-01-28T10:40:56.038Z,100406.88
2023-01-28T10:43:58.797Z,100399.77
2023-01-28T10:46:59.058Z,100391.25
2023-01-28T10:50:02.070Z,100381.35
2023-01-28T10:53:09.179Z,100371.45
2023-01-28T10:56:12.136Z,100371.52
2023-01-28T10:59:20.233Z,100368.52
2023-01-28T11:02:38.171Z,100369.18
2023-01-28T11:05:43.110Z,100361.45
2023-01-28T11:08:44.103Z,100350.38
2023-01-28T11:11:44.107Z,100344.77
2023-01-28T11:14:47.320Z,100329.59
2023-01-28T11:17:48.195Z,100328.13
2023-01-28T11:20:52.185Z,100313.77
2023-01-28T11:23:59.571Z,100321.23
2023-01-28T11:27:02.447Z,100310.20
2023-01-28T11:30:08.336Z,100304.45
2023-01-28T11:33:26.079Z,100303.84
2023-01-28T11:36:29.147Z,100312.77
2023-01-28T11:39:38.144Z,100310.94
2023-01-28T11:42:38.241Z,100303.86
2023-01-28T11:45:49.186Z,100300.78
2023-01-28T11:49:15.172Z,100298.15
2023-01-28T11:52:55.338Z,100293.09
2023-01-28T11:56:19.184Z,100284.87
2023-01-28T11:59:29.214Z,100284.89
2023-01-28T12:02:43.351Z,100283.22
2023-01-28T12:06:00.396Z,100274.42
2023-01-28T12:09:20.988Z,100273.79
2023-01-28T12:12:56.268Z,100272.40
2023-01-28T12:16:40.274Z,100270.06
2023-01-28T12:20:14.506Z,100265.38
2023-01-28T12:23:43.711Z,100264.36
2023-01-28T12:26:59.293Z,100259.59
2023-01-28T12:30:19.248Z,100262.84
2023-01-28T12:33:42.281Z,100259.77
2023-01-28T12:37:18.255Z,100260.26
2023-01-28T12:40:29.809Z,100255.45
2023-01-28T12:44:03.323Z,100253.48
2023-01-28T12:47:08.300Z,100257.02
2023-01-28T12:50:18.694Z,100254.48
2023-01-28T12:53:33.292Z,100252.11
2023-01-28T12:56:37.320Z,100252.31
2023-01-28T12:59:52.294Z,100250.26
2023-01-28T13:02:59.379Z,100254.61
2023-01-28T13:06:05.566Z,100257.90
2023-01-28T13:09:09.365Z,100254.27
2023-01-28T13:12:11.274Z,100257.61
2023-01-28T13:15:17.701Z,100254.82
2023-01-28T13:18:20.420Z,100255.33
2023-01-28T13:21:27.837Z,100256.98
2023-01-28T13:24:28.494Z,100258.28
2023-01-28T13:27:35.376Z,100263.80
2023-01-28T13:30:39.464Z,100269.11
2023-01-28T13:33:51.425Z,100269.27
2023-01-28T13:37:06.008Z,100266.46
2023-01-28T13:40:16.515Z,100266.36
2023-01-28T13:43:43.969Z,100266.54
2023-01-28T13:46:53.772Z,100267.67
2023-01-28T13:50:00.436Z,100265.40
2023-01-28T13:53:49.516Z,100270.32
2023-01-28T13:57:27.417Z,100278.26
2023-01-28T14:00:49.573Z,100279.79
2023-01-28T14:04:22.389Z,100278.34
2023-01-28T14:07:44.334Z,100279.74
2023-01-28T14:11:04.750Z,100279.48
2023-01-28T14:14:37.379Z,100283.69
2023-01-28T14:18:04.465Z,100280.83
2023-01-28T14:21:16.986Z,100285.71
2023-01-28T14:24:19.489Z,100288.52
2023-01-28T14:27:29.412Z,100287.65
2023-01-28T14:30:41.636Z,100284.12
2023-01-28T14:33:42.427Z,100286.14
2023-01-28T14:36:44.436Z,100290.96
2023-01-28T14:39:47.442Z,100293.97
2023-01-28T14:43:14.412Z,100293.88
2023-01-28T14:46:45.515Z,100290.70
2023-01-28T14:50:07.419Z,100296.45
2023-01-28T14:53:32.026Z,100299.39
2023-01-28T14:56:40.532Z,100303.64
2023-01-28T15:00:08.422Z,100309.02
2023-01-28T15:03:23.143Z,100317.11
2023-01-28T15:06:31.465Z,100320.52
2023-01-28T15:09:34.699Z,100321.42
2023-01-28T15:12:35.516Z,100321.88
2023-01-28T15:16:04.485Z,100320.48
2023-01-28T15:19:06.525Z,100322.98
2023-01-28T15:22:19.720Z,100322.72
2023-01-28T15:25:26.448Z,100323.42
2023-01-28T15:28:30.586Z,100325.96
2023-01-28T15:31:49.434Z,100323.03
2023-01-28T15:34:58.548Z,100324.89
2023-01-28T15:37:58.713Z,100324.84
2023-01-28T15:41:04.561Z,100326.35
2023-01-28T15:44:05.494Z,100327.25
2023-01-28T15:47:05.724Z,100325.00
2023-01-28T15:50:07.791Z,100330.73
2023-01-28T15:53:08.510Z,100329.09
2023-01-28T15:56:17.716Z,100333.88
2023-01-28T15:59:31.752Z,100329.27
2023-01-28T16:02:41.542Z,100327.55
2023-01-28T16:05:52.685Z,100333.35
2023-01-28T16:09:20.545Z,100336.88
2023-01-28T16:12:22.693Z,100337.36
2023-01-28T16:15:29.553Z,100336.48
2023-01-28T16:18:42.593Z,100337.81
2023-01-28T16:21:50.287Z,100333.91
2023-01-28T16:25:01.620Z,100337.79
2023-01-28T16:28:02.225Z,100332.58
2023-01-28T16:31:02.718Z,100334.91
2023-01-28T16:34:02.611Z,100336.67
2023-01-28T16:37:02.676Z,100339.58
2023-01-28T16:40:05.443Z,100341.53
2023-01-28T16:43:08.883Z,100343.13
2023-01-28T16:46:09.899Z,100350.48
2023-01-28T16:49:11.859Z,100347.00
2023-01-28T16:52:13.634Z,100347.79
2023-01-28T16:55:15.224Z,100351.26
2023-01-28T16:58:19.683Z,100354.15
2023-01-28T17:01:21.735Z,100349.58
2023-01-28T17:04:24.829Z,100354.79
2023-01-28T17:07:30.100Z,100354.67
2023-01-28T17:10:30.756Z,100349.05
2023-01-28T17:13:33.720Z,100346.96
2023-01-28T17:16:33.710Z,100346.27
2023-01-28T17:19:33.892Z,100354.93
2023-01-28T17:22:33.685Z,100360.30
2023-01-28T17:25:33.728Z,100358.86
2023-01-28T17:28:36.716Z,100353.14
2023-01-28T17:31:36.821Z,100353.29
2023-01-28T17:34:38.832Z,100354.55
2023-01-28T17:37:38.685Z,100357.77
2023-01-28T17:40:38.895Z,100352.41
2023-01-28T17:43:40.750Z,100355.35
2023-01-28T17:46:40.778Z,100353.23
2023-01-28T17:49:42.970Z,100350.76
2023-01-28T17:52:44.855Z,100354.09
2023-01-28T17:55:44.828Z,100357.33
2023-01-28T17:58:49.150Z,100358.52
2023-01-28T18:01:53.853Z,100358.08
2023-01-28T18:04:53.892Z,100360.09
2023-01-28T18:08:07.083Z,100361.96
2023-01-28T18:11:18.757Z,100362.95
2023-01-28T18:14:29.394Z,100361.40
2023-01-28T18:17:35.881Z,100359.31
2023-01-28T18:20:38.985Z,100361.63
2023-01-28T18:23:49.385Z,100363.10
2023-01-28T18:30:20.975Z,100368.15
2023-01-28T18:33:29.194Z,100376.17
2023-01-28T18:36:38.849Z,100387.73
2023-01-28T18:39:42.263Z,100387.95
2023-01-28T18:42:44.848Z,100389.23
2023-01-28T18:45:57.989Z,100388.75
2023-01-28T18:49:01.943Z,100386.34
2023-01-28T18:52:02.799Z,100387.81
2023-01-28T18:55:03.847Z,100387.02
2023-01-28T18:58:03.926Z,100377.64
2023-01-28T19:01:07.008Z,100381.09
2023-01-28T19:04:08.187Z,100382.80
2023-01-28T19:07:10.824Z,100374.56
2023-01-28T19:10:15.127Z,100370.60
2023-01-28T19:13:14.938Z,100369.13
2023-01-28T19:16:17.192Z,100365.80
2023-01-28T19:19:17.927Z,100363.84
2023-01-28T19:22:22.887Z,100366.84
2023-01-28T19:25:24.869Z,100365.05
2023-01-28T19:28:31.019Z,100366.84
2023-01-28T19:31:32.078Z,100375.23
2023-01-28T19:34:31.927Z,100380.70
2023-01-28T19:37:32.080Z,100380.64
2023-01-28T19:40:32.918Z,100380.90
2023-01-28T19:43:33.969Z,100375.41
2023-01-28T19:46:35.906Z,100376.39
2023-01-28T19:49:35.926Z,100382.15
2023-01-28T19:52:29.019Z,100384.90
2023-01-28T19:55:32.118Z,100383.45
2023-01-28T19:58:35.273Z,100387.67
2023-01-28T20:01:41.983Z,100389.36
2023-01-28T20:05:00.211Z,100390.96
2023-01-28T20:08:00.984Z,100392.13
2023-01-28T20:11:02.981Z,100396.41
2023-01-28T20:14:09.508Z,100395.47
2023-01-28T20:17:12.222Z,100392.99
2023-01-28T20:20:13.989Z,100395.38
2023-01-28T20:23:14.996Z,100397.24
2023-01-28T20:26:21.075Z,100397.30
2023-01-28T20:29:28.907Z,100394.42
2023-01-28T20:32:32.550Z,100394.91
2023-01-28T20:35:33.002Z,100395.30
2023-01-28T20:38:35.015Z,100394.95
2023-01-28T20:41:36.995Z,100398.06
2023-01-28T20:44:38.150Z,100394.40
2023-01-28T20:47:40.145Z,100397.17
2023-01-28T20:50:41.006Z,100395.80
2023-01-28T20:53:41.132Z,100392.13
2023-01-28T20:56:41.071Z,100387.06
2023-01-28T20:59:41.065Z,100388.36
2023-01-28T21:02:44.716Z,100387.60
2023-01-28T21:05:49.129Z,100394.47
2023-01-28T21:08:53.054Z,100390.72
2023-01-28T21:11:54.865Z,100388.98
2023-01-28T21:14:56.107Z,100387.50
2023-01-28T21:17:58.067Z,100386.64
2023-01-28T21:21:02.027Z,100390.50
2023-01-28T21:24:04.200Z,100390.77
2023-01-28T21:27:05.359Z,100389.14
2023-01-28T21:30:08.071Z,100392.23
2023-01-28T21:33:12.094Z,100394.88
2023-01-28T21:36:12.089Z,100392.56
2023-01-28T21:39:12.092Z,100396.30
2023-01-28T21:42:13.133Z,100395.83
2023-01-28T21:45:16.432Z,100397.96
2023-01-28T21:48:17.172Z,100401.05
2023-01-28T21:51:37.217Z,100400.40
2023-01-28T21:54:37.106Z,100406.81
2023-01-28T21:57:41.325Z,100403.25
2023-01-28T22:00:41.126Z,100403.42
2023-01-28T22:03:46.131Z,100400.91
2023-01-28T22:07:01.566Z,100397.70
2023-01-28T22:10:02.123Z,100396.60
2023-01-28T22:13:03.307Z,100397.63
2023-01-28T22:16:05.085Z,100399.79
2023-01-28T22:19:06.204Z,100400.23
2023-01-28T22:22:08.237Z,100395.52
2023-01-28T22:25:08.213Z,100388.70
2023-01-28T22:28:08.143Z,100383.17
2023-01-28T22:31:20.670Z,100384.05
2023-01-28T22:34:21.314Z,100382.55
2023-01-28T22:37:21.225Z,100384.27
2023-01-28T22:40:22.312Z,100380.67
2023-01-28T22:43:25.525Z,100378.00
2023-01-28T22:46:26.472Z,100372.84
2023-01-28T22:49:32.588Z,100371.94
2023-01-28T22:52:35.109Z,100372.98
2023-01-28T22:55:37.493Z,100373.48
2023-01-28T22:58:41.086Z,100371.93
2023-01-28T23:01:43.647Z,100373.81
2023-01-28T23:04:44.883Z,100374.30
2023-01-28T23:07:51.257Z,100370.36
2023-01-28T23:11:03.780Z,100372.61
2023-01-28T23:14:50.501Z,100371.36
2023-01-28T23:18:10.378Z,100364.59
2023-01-28T23:21:29.276Z,100358.46
2023-01-28T23:24:32.729Z,100355.29
2023-01-28T23:27:35.551Z,100350.98
2023-01-28T23:30:36.666Z,100353.79
2023-01-28T23:33:39.298Z,100353.73
2023-01-28T23:36:41.523Z,100352.02
2023-01-28T23:39:41.316Z,100350.42
2023-01-28T23:42:41.409Z,100347.38
2023-01-28T23:45:42.463Z,100345.48
2023-01-28T23:48:44.780Z,100343.70
2023-01-28T23:51:46.275Z,100342.88
2023-01-28T23:54:46.286Z,100341.42
2023-01-28T23:57:50.719Z,100342.73
